Time;durP1;ratioP1;P1;durP2;ratioP2;P2;SDS_P1;SDS_P2;PMS_P1;PMS_P2;Temp;Humidity;BMP_temperature;BMP_pressure;BME280_temperature;BME280_humidity;BME280_pressure;Samples;Min_cycle;Max_cycle;Signal;HPM_P1;HPM_P2
2022/08/23 00:01:20;;;;;;;5.73;3.60;;;22.10;99.90;;;;;;5025780;28;21002;-73
2022/08/23 00:03:48;;;;;;;4.57;4.07;;;22.10;99.90;;;;;;5021783;28;20493;-73
2022/08/23 00:06:16;;;;;;;4.30;3.43;;;22.20;99.90;;;;;;5029837;28;20464;-73
2022/08/23 00:08:47;;;;;;;13.83;4.47;;;22.20;99.90;;;;;;5022481;28;20461;-72
2022/08/23 00:11:26;;;;;;;5.80;4.00;;;22.20;99.90;;;;;;5027135;28;20851;-72
2022/08/23 00:13:53;;;;;;;4.20;3.83;;;22.10;99.90;;;;;;5027026;28;20480;-72
2022/08/23 00:16:20;;;;;;;10.60;4.00;;;22.10;99.90;;;;;;5028013;28;20460;-73
2022/08/23 00:18:49;;;;;;;7.90;3.90;;;21.90;99.90;;;;;;5018208;28;23082;-72
2022/08/23 00:21:16;;;;;;;7.63;3.30;;;21.40;99.90;;;;;;5020900;28;20949;-73
2022/08/23 00:23:43;;;;;;;4.40;4.10;;;21.40;99.90;;;;;;5017516;28;20469;-72
2022/08/23 00:26:10;;;;;;;4.03;3.63;;;21.30;99.90;;;;;;5025839;28;20493;-73
2022/08/23 00:28:36;;;;;;;4.80;4.17;;;21.30;99.90;;;;;;5020993;28;20458;-72
2022/08/23 00:31:03;;;;;;;8.43;3.97;;;21.30;99.90;;;;;;5024522;28;20592;-72
2022/08/23 00:33:30;;;;;;;4.10;3.20;;;21.30;99.90;;;;;;5026372;28;20461;-72
2022/08/23 00:35:58;;;;;;;4.87;4.00;;;21.50;99.90;;;;;;5026682;28;20460;-74
2022/08/23 00:38:25;;;;;;;4.83;4.40;;;21.60;99.90;;;;;;5027978;28;20503;-72
2022/08/23 00:40:53;;;;;;;4.23;3.50;;;21.70;99.90;;;;;;5036574;28;20474;-72
2022/08/23 00:49:08;;;;;;;5.03;3.43;;;21.80;99.90;;;;;;5019643;28;20965;-72
2022/08/23 00:51:45;;;;;;;4.20;3.03;;;21.80;99.90;;;;;;5030105;28;20483;-72
2022/08/23 00:54:14;;;;;;;4.83;4.30;;;21.60;99.90;;;;;;5021893;28;20463;-72
2022/08/23 00:56:41;;;;;;;4.03;3.30;;;21.50;99.90;;;;;;5033608;28;20461;-72
2022/08/23 00:59:09;;;;;;;7.77;5.40;;;21.50;99.90;;;;;;5020174;28;20477;-72
2022/08/23 01:01:36;;;;;;;5.13;4.70;;;21.50;99.90;;;;;;5027777;28;20979;-72
2022/08/23 01:04:03;;;;;;;4.40;3.83;;;21.50;99.90;;;;;;5027052;28;20490;-72
2022/08/23 01:06:35;;;;;;;4.10;3.73;;;21.60;99.90;;;;;;5021623;28;20465;-72
2022/08/23 01:09:11;;;;;;;8.90;3.87;;;21.60;99.90;;;;;;5026355;28;20714;-73
2022/08/23 01:11:40;;;;;;;5.30;3.97;;;21.50;99.90;;;;;;5023279;28;20565;-73
2022/08/23 01:14:12;;;;;;;4.03;3.63;;;21.50;99.90;;;;;;5026308;28;20461;-72
2022/08/23 01:16:44;;;;;;;4.70;3.90;;;21.50;99.90;;;;;;5027195;28;20510;-73
2022/08/23 01:19:17;;;;;;;4.53;4.10;;;21.40;99.90;;;;;;5024388;28;20494;-73
2022/08/23 01:21:51;;;;;;;4.43;3.40;;;21.30;99.90;;;;;;5030097;28;20492;-72
2022/08/23 01:24:20;;;;;;;5.43;3.80;;;21.30;99.90;;;;;;5032240;28;20461;-73
2022/08/23 01:26:47;;;;;;;5.10;4.60;;;21.30;99.90;;;;;;5031920;28;20466;-73
2022/08/23 01:29:15;;;;;;;9.03;3.90;;;21.10;99.90;;;;;;5023754;28;20808;-73
2022/08/23 01:31:43;;;;;;;5.20;4.13;;;21.00;99.90;;;;;;5024628;28;20951;-73
2022/08/23 01:34:16;;;;;;;4.77;4.20;;;20.90;99.90;;;;;;5025800;28;20463;-73
2022/08/23 01:36:44;;;;;;;4.93;4.00;;;20.90;99.90;;;;;;5024286;28;20472;-72
2022/08/23 01:39:11;;;;;;;4.70;3.77;;;20.80;99.90;;;;;;5029241;28;20497;-72
2022/08/23 01:41:40;;;;;;;4.43;4.03;;;20.80;99.90;;;;;;5023424;28;20476;-72
2022/08/23 01:44:07;;;;;;;6.17;4.70;;;20.80;99.90;;;;;;5034866;28;20829;-72
2022/08/23 01:46:36;;;;;;;7.63;3.67;;;20.70;99.90;;;;;;5027527;28;20460;-71
2022/08/23 01:49:04;;;;;;;3.50;3.20;;;20.50;99.90;;;;;;5029650;28;20457;-72
2022/08/23 01:51:31;;;;;;;8.70;4.83;;;20.40;99.90;;;;;;5028308;28;20484;-72
2022/08/23 01:53:58;;;;;;;5.03;4.40;;;20.40;99.90;;;;;;5028660;28;20926;-72
2022/08/23 01:56:26;;;;;;;5.30;3.80;;;20.50;99.90;;;;;;5020120;28;20861;-71
2022/08/23 01:58:54;;;;;;;4.30;3.90;;;20.50;99.90;;;;;;5019796;28;20465;-72
2022/08/23 02:01:21;;;;;;;8.53;3.87;;;20.50;99.90;;;;;;5026136;28;21006;-72
2022/08/23 02:03:48;;;;;;;4.30;3.90;;;20.50;99.90;;;;;;5022367;28;20515;-72
2022/08/23 02:06:15;;;;;;;11.30;3.93;;;20.50;99.90;;;;;;5022367;28;20710;-71
2022/08/23 02:09:00;;;;;;;6.67;4.37;;;20.50;99.90;;;;;;5025079;28;20556;-72
2022/08/23 02:11:30;;;;;;;6.40;4.27;;;20.30;99.90;;;;;;5023639;28;20473;-73
2022/08/23 02:14:00;;;;;;;4.77;3.90;;;20.20;99.90;;;;;;5025786;28;21021;-72
2022/08/23 02:16:29;;;;;;;7.27;4.77;;;20.20;99.90;;;;;;5028607;28;20832;-73
2022/08/23 02:18:57;;;;;;;4.73;4.23;;;20.20;99.90;;;;;;5030026;28;20460;-73
2022/08/23 02:21:25;;;;;;;8.97;4.27;;;19.80;99.90;;;;;;5024763;28;20612;-72
2022/08/23 02:23:51;;;;;;;6.10;4.00;;;19.60;99.90;;;;;;5024037;28;20457;-71
2022/08/23 02:26:19;;;;;;;4.93;4.00;;;19.40;99.90;;;;;;5028919;28;20464;-71
2022/08/23 02:28:46;;;;;;;7.20;4.10;;;19.50;99.90;;;;;;5031746;28;20451;-72
2022/08/23 02:31:14;;;;;;;6.07;3.83;;;19.60;99.90;;;;;;5024543;28;20475;-72
2022/08/23 02:33:41;;;;;;;4.00;3.60;;;19.50;99.90;;;;;;5019188;28;20453;-72
2022/08/23 02:36:08;;;;;;;4.77;4.33;;;19.50;99.90;;;;;;5026043;28;20460;-72
2022/08/23 02:38:44;;;;;;;5.10;4.30;;;19.50;99.90;;;;;;5022563;28;20547;-73
2022/08/23 02:41:11;;;;;;;5.20;3.97;;;19.50;99.90;;;;;;5025016;28;20506;-73
2022/08/23 02:43:38;;;;;;;6.00;4.03;;;19.50;99.90;;;;;;5027908;28;20995;-72
2022/08/23 02:46:06;;;;;;;4.63;3.90;;;19.50;99.90;;;;;;5028368;28;20799;-72
2022/08/23 02:48:36;;;;;;;5.30;4.07;;;19.50;99.90;;;;;;5026649;28;20475;-73
2022/08/23 02:51:06;;;;;;;4.30;3.90;;;19.30;99.90;;;;;;5025879;28;20472;-73
2022/08/23 02:53:34;;;;;;;4.73;3.47;;;19.30;99.90;;;;;;5026138;28;20853;-73
2022/08/23 02:56:01;;;;;;;7.00;4.00;;;19.30;99.90;;;;;;5032282;28;20467;-73
2022/08/23 02:58:28;;;;;;;6.07;4.10;;;19.30;99.90;;;;;;5029638;28;20975;-72
2022/08/23 03:00:55;;;;;;;5.13;4.03;;;19.30;99.90;;;;;;5023430;28;20832;-73
2022/08/23 03:03:22;;;;;;;7.37;4.33;;;19.30;99.90;;;;;;5027776;28;20446;-73
2022/08/23 03:05:51;;;;;;;4.57;4.10;;;19.30;99.90;;;;;;5027768;28;20464;-73
2022/08/23 03:08:19;;;;;;;5.73;4.53;;;19.40;99.90;;;;;;5025845;28;20461;-73
2022/08/23 03:10:49;;;;;;;7.00;5.73;;;19.20;99.90;;;;;;5028507;28;21194;-73
2022/08/23 03:13:16;;;;;;;4.70;4.30;;;19.10;99.90;;;;;;5029167;28;20464;-72
2022/08/23 03:15:43;;;;;;;4.43;4.00;;;19.10;99.90;;;;;;5032077;28;20460;-72
2022/08/23 03:18:11;;;;;;;6.20;3.80;;;19.10;99.90;;;;;;5030128;28;20456;-72
2022/08/23 03:20:40;;;;;;;6.97;4.73;;;19.10;99.90;;;;;;5025387;28;20563;-72
2022/08/23 03:23:08;;;;;;;10.13;5.40;;;19.10;99.90;;;;;;5024760;28;20461;-71
2022/08/23 03:25:36;;;;;;;4.80;4.23;;;19.00;99.90;;;;;;5025658;28;20456;-71
2022/08/23 03:28:05;;;;;;;5.97;4.10;;;18.90;99.90;;;;;;5017607;28;20492;-72
2022/08/23 03:30:32;;;;;;;10.30;4.77;;;18.90;99.90;;;;;;5031083;28;21003;-72
2022/08/23 03:33:00;;;;;;;14.30;6.03;;;18.80;99.90;;;;;;5023681;28;20464;-72
2022/08/23 03:35:30;;;;;;;9.43;5.10;;;18.70;99.90;;;;;;5031868;28;20460;-73
2022/08/23 03:37:56;;;;;;;12.03;4.80;;;18.60;99.90;;;;;;5033342;28;20635;-72
2022/08/23 03:40:25;;;;;;;15.83;5.87;;;18.50;99.90;;;;;;5044569;28;20650;-71
2022/08/23 03:42:52;;;;;;;8.73;4.43;;;18.50;99.90;;;;;;5046138;28;20528;-73
2022/08/23 03:45:19;;;;;;;11.73;5.33;;;18.60;99.90;;;;;;5041347;28;20484;-72
2022/08/23 03:47:46;;;;;;;12.50;5.20;;;18.50;99.90;;;;;;5027161;28;21057;-72
2022/08/23 03:50:14;;;;;;;5.70;4.60;;;18.60;99.90;;;;;;5022054;28;20464;-73
2022/08/23 03:52:41;;;;;;;9.50;4.80;;;18.60;99.90;;;;;;5033736;28;20459;-72
2022/08/23 03:55:08;;;;;;;9.00;4.40;;;18.50;99.90;;;;;;5031518;28;20499;-72
2022/08/23 03:57:36;;;;;;;10.37;4.30;;;18.50;99.90;;;;;;5028263;28;20467;-72
2022/08/23 04:00:06;;;;;;;6.97;4.27;;;18.20;99.90;;;;;;5030281;28;20985;-72
2022/08/23 04:02:33;;;;;;;11.27;6.00;;;17.90;99.90;;;;;;5032737;28;20591;-73
2022/08/23 04:05:00;;;;;;;7.47;4.27;;;17.90;99.90;;;;;;5028394;23;20484;-72
2022/08/23 04:07:27;;;;;;;12.93;6.97;;;18.00;99.90;;;;;;5033523;28;20456;-72
2022/08/23 04:09:54;;;;;;;9.13;4.40;;;18.00;99.90;;;;;;5024212;28;20456;-72
2022/08/23 04:12:22;;;;;;;9.50;5.27;;;18.10;99.90;;;;;;5027383;28;20883;-71
2022/08/23 04:14:53;;;;;;;5.70;4.90;;;18.20;99.90;;;;;;5026700;28;20475;-71
2022/08/23 04:17:20;;;;;;;7.00;5.80;;;18.20;99.90;;;;;;5018573;28;20480;-70
2022/08/23 04:19:48;;;;;;;7.37;4.53;;;18.20;99.90;;;;;;5028021;28;20484;-71
2022/08/23 04:22:16;;;;;;;11.63;5.90;;;18.20;99.90;;;;;;5039475;28;20466;-72
2022/08/23 04:24:44;;;;;;;13.30;4.80;;;18.10;99.90;;;;;;5038497;28;20562;-71
2022/08/23 04:27:12;;;;;;;8.23;4.77;;;18.00;99.90;;;;;;5035773;28;20467;-71
2022/08/23 04:29:39;;;;;;;4.43;3.80;;;18.00;99.90;;;;;;5033642;28;20882;-72
2022/08/23 04:32:10;;;;;;;6.53;4.40;;;17.90;99.90;;;;;;5025856;28;20459;-72
2022/08/23 04:34:38;;;;;;;6.57;5.10;;;17.90;99.90;;;;;;5030437;28;20458;-71
2022/08/23 04:37:06;;;;;;;6.13;5.40;;;18.00;99.90;;;;;;5039431;28;20830;-72
2022/08/23 04:42:16;;;;;;;5.90;4.80;;;18.00;99.90;;;;;;5032177;28;20555;-71
2022/08/23 04:42:19;;;;;;;6.57;5.10;;;18.00;99.90;;;;;;5039097;28;20506;-71
2022/08/23 04:44:46;;;;;;;6.67;5.30;;;18.00;99.90;;;;;;5032000;28;20488;-71
2022/08/23 04:47:15;;;;;;;5.57;3.90;;;18.00;99.90;;;;;;5031762;28;20209;-71
2022/08/23 04:49:42;;;;;;;8.70;4.67;;;17.90;99.90;;;;;;5023987;28;20825;-70
2022/08/23 04:52:09;;;;;;;9.80;5.07;;;18.00;99.90;;;;;;5040045;28;20943;-71
2022/08/23 04:54:36;;;;;;;12.63;4.57;;;17.90;99.90;;;;;;5040805;28;20574;-72
2022/08/23 04:57:03;;;;;;;9.03;4.60;;;17.90;99.90;;;;;;5043251;28;20454;-71
2022/08/23 04:59:30;;;;;;;14.10;5.30;;;18.00;99.90;;;;;;5045212;28;20439;-71
2022/08/23 05:01:57;;;;;;;7.60;6.43;;;18.00;99.90;;;;;;5045895;28;20444;-71
2022/08/23 05:04:26;;;;;;;11.60;5.10;;;18.00;99.90;;;;;;5036957;28;20860;-71
2022/08/23 05:06:52;;;;;;;11.17;4.73;;;18.00;99.90;;;;;;5043184;28;20450;-71
2022/08/23 05:09:19;;;;;;;19.40;8.00;;;18.00;99.90;;;;;;5040593;28;21263;-71
2022/08/23 05:11:46;;;;;;;24.13;6.90;;;18.00;99.90;;;;;;5040533;28;20460;-71
2022/08/23 05:14:13;;;;;;;26.87;6.77;;;18.00;99.90;;;;;;5037490;28;20488;-72
2022/08/23 05:16:40;;;;;;;42.50;7.37;;;18.10;99.90;;;;;;5036869;28;20456;-71
2022/08/23 05:19:07;;;;;;;24.43;6.60;;;18.20;99.90;;;;;;5040448;28;20469;-71
2022/08/23 05:21:35;;;;;;;20.53;6.40;;;18.00;99.90;;;;;;5040933;28;20484;-72
2022/08/23 05:24:02;;;;;;;14.57;6.40;;;18.20;99.90;;;;;;5044948;28;20550;-71
2022/08/23 05:26:29;;;;;;;19.73;6.07;;;18.30;99.90;;;;;;5049120;28;20467;-71
2022/08/23 05:28:56;;;;;;;26.20;10.07;;;18.60;99.90;;;;;;5041989;28;20932;-71
2022/08/23 05:31:26;;;;;;;23.13;8.97;;;18.80;99.90;;;;;;5042125;28;20488;-72
2022/08/23 05:33:53;;;;;;;17.67;6.03;;;19.10;99.90;;;;;;5038856;28;20549;-71
2022/08/23 05:36:21;;;;;;;16.33;5.10;;;19.10;99.90;;;;;;5038774;28;20515;-72
2022/08/23 05:38:51;;;;;;;16.10;5.43;;;19.30;99.90;;;;;;5045148;28;20459;-72
2022/08/23 05:41:18;;;;;;;22.37;7.70;;;19.50;99.90;;;;;;5042004;28;20486;-71
2022/08/23 05:43:46;;;;;;;10.63;4.93;;;19.60;99.90;;;;;;5041742;28;20856;-72
2022/08/23 05:46:16;;;;;;;16.83;6.53;;;19.70;99.90;;;;;;5031692;28;20456;-71
2022/08/23 05:48:45;;;;;;;11.33;4.87;;;19.70;99.90;;;;;;5039261;28;20466;-70
2022/08/23 05:51:14;;;;;;;6.80;4.53;;;20.20;99.90;;;;;;5045034;28;20963;-71
2022/08/23 05:53:42;;;;;;;10.23;5.23;;;20.70;99.90;;;;;;5044676;28;20491;-71
2022/08/23 05:56:12;;;;;;;14.50;5.50;;;21.20;99.90;;;;;;5046483;28;20461;-72
2022/08/23 05:58:39;;;;;;;15.37;5.10;;;21.80;99.90;;;;;;5043530;28;20543;-71
2022/08/23 06:01:06;;;;;;;11.77;5.73;;;22.40;99.90;;;;;;5042680;28;21014;-72
2022/08/23 06:03:33;;;;;;;5.70;4.83;;;22.90;99.90;;;;;;5044945;28;20534;-72
2022/08/23 06:06:00;;;;;;;9.43;4.30;;;23.10;99.90;;;;;;5041509;28;20508;-72
2022/08/23 06:08:28;;;;;;;6.70;4.17;;;23.10;99.90;;;;;;5042333;28;20816;-71
2022/08/23 06:11:01;;;;;;;6.33;4.53;;;23.60;99.90;;;;;;5043991;28;20445;-71
2022/08/23 06:13:29;;;;;;;7.43;4.13;;;23.60;99.90;;;;;;5043476;28;20644;-71
2022/08/23 06:15:57;;;;;;;10.93;6.53;;;24.20;99.90;;;;;;5042566;28;20862;-72
2022/08/23 06:18:24;;;;;;;7.07;5.10;;;24.50;99.90;;;;;;5040852;28;20447;-72
2022/08/23 06:21:00;;;;;;;26.50;6.40;;;24.80;99.90;;;;;;5044609;28;20477;-70
2022/08/23 06:23:28;;;;;;;8.03;4.60;;;25.20;99.90;;;;;;5041954;28;20836;-71
2022/08/23 06:25:55;;;;;;;5.20;4.43;;;25.20;99.90;;;;;;5043619;28;20479;-71
2022/08/23 06:28:22;;;;;;;9.40;6.00;;;25.70;99.90;;;;;;5042295;28;20509;-72
2022/08/23 06:30:53;;;;;;;12.77;6.97;;;25.00;99.90;;;;;;5041876;28;20563;-71
2022/08/23 06:33:20;;;;;;;11.73;5.30;;;25.40;99.90;;;;;;5042297;28;20521;-71
2022/08/23 06:35:47;;;;;;;17.20;6.33;;;26.10;99.90;;;;;;5045035;28;20475;-71
2022/08/23 06:38:14;;;;;;;7.93;5.50;;;26.50;99.90;;;;;;5038724;28;20459;-70
2022/08/23 06:40:41;;;;;;;6.03;3.90;;;26.90;99.90;;;;;;5043453;28;20490;-71
2022/08/23 06:43:08;;;;;;;6.60;4.70;;;27.20;99.90;;;;;;5043061;28;20590;-71
2022/08/23 06:45:35;;;;;;;8.40;4.90;;;27.20;99.90;;;;;;5044754;28;21237;-72
2022/08/23 06:48:03;;;;;;;6.17;3.90;;;27.70;99.90;;;;;;5033612;28;20493;-71
2022/08/23 06:50:30;;;;;;;5.30;4.10;;;28.00;99.90;;;;;;5043676;28;20824;-71
2022/08/23 06:52:57;;;;;;;6.53;4.50;;;28.00;99.90;;;;;;5043148;28;20692;-72
2022/08/23 06:55:24;;;;;;;6.03;3.90;;;28.10;99.90;;;;;;5044264;28;20471;-71
2022/08/23 06:57:51;;;;;;;8.33;4.20;;;28.70;99.90;;;;;;5039930;28;20464;-72
2022/08/23 07:00:18;;;;;;;5.97;4.30;;;28.80;99.90;;;;;;5042114;28;20448;-72
2022/08/23 07:02:45;;;;;;;6.47;4.33;;;28.80;99.90;;;;;;5048690;28;20460;-72
2022/08/23 07:05:13;;;;;;;9.37;4.43;;;29.00;99.90;;;;;;5044645;28;20553;-72
2022/08/23 07:07:40;;;;;;;19.10;4.57;;;29.50;99.90;;;;;;5046327;28;20448;-72
2022/08/23 07:10:08;;;;;;;8.77;4.00;;;30.00;99.90;;;;;;5047197;28;20448;-72
2022/08/23 07:12:40;;;;;;;5.17;3.70;;;29.60;99.90;;;;;;5046639;28;20714;-72
2022/08/23 07:15:08;;;;;;;6.37;3.80;;;29.80;99.90;;;;;;5046788;28;20844;-72
2022/08/23 07:17:35;;;;;;;9.40;4.33;;;29.90;99.40;;;;;;5047026;28;20450;-71
2022/08/23 07:20:03;;;;;;;3.97;3.30;;;29.80;99.40;;;;;;5041193;28;20500;-72
2022/08/23 07:22:31;;;;;;;10.77;3.77;;;30.30;99.20;;;;;;5045917;28;20491;-72
2022/08/23 07:24:58;;;;;;;9.57;3.70;;;31.00;97.90;;;;;;5044312;28;20474;-72
2022/08/23 07:27:25;;;;;;;7.53;3.80;;;31.20;96.50;;;;;;5051266;28;20445;-71
2022/08/23 07:29:52;;;;;;;10.83;4.50;;;31.20;95.70;;;;;;5046497;28;20439;-72
2022/08/23 07:32:19;;;;;;;4.73;3.10;;;31.30;95.50;;;;;;5046468;28;20444;-72
2022/08/23 07:34:45;;;;;;;15.00;3.60;;;30.90;94.40;;;;;;5046770;28;20471;-71
2022/08/23 07:37:12;;;;;;;5.37;3.10;;;31.20;93.50;;;;;;5046607;28;20955;-72
2022/08/23 07:39:41;;;;;;;6.27;2.83;;;31.70;93.50;;;;;;5047081;28;20459;-71
2022/08/23 07:42:08;;;;;;;8.20;3.30;;;31.60;92.30;;;;;;5044206;28;21021;-72
2022/08/23 07:44:34;;;;;;;6.33;2.80;;;32.00;88.10;;;;;;5047107;28;20881;-73
2022/08/23 07:47:01;;;;;;;3.87;2.80;;;32.30;84.00;;;;;;5043979;28;20455;-72
2022/08/23 07:49:31;;;;;;;5.30;2.90;;;31.60;84.80;;;;;;5045541;28;20448;-72
2022/08/23 07:51:58;;;;;;;3.00;2.23;;;31.50;86.30;;;;;;5044518;28;20452;-71
2022/08/23 07:54:27;;;;;;;5.30;3.07;;;31.80;84.70;;;;;;5044774;28;20474;-72
2022/08/23 07:56:55;;;;;;;2.20;2.00;;;32.20;83.10;;;;;;5043749;28;20551;-72
2022/08/23 07:59:22;;;;;;;4.70;2.70;;;32.70;83.50;;;;;;5043108;28;20456;-72
2022/08/23 08:01:49;;;;;;;8.83;3.43;;;32.30;81.40;;;;;;5041942;28;20472;-72
2022/08/23 08:04:16;;;;;;;4.60;2.60;;;32.70;79.90;;;;;;5043387;28;20877;-71
2022/08/23 08:06:46;;;;;;;4.17;2.60;;;32.60;84.10;;;;;;5046902;28;21066;-71
2022/08/23 08:09:15;;;;;;;4.40;3.37;;;33.10;80.50;;;;;;5044335;28;20452;-71
2022/08/23 08:11:46;;;;;;;3.93;3.20;;;33.70;78.00;;;;;;5040818;28;20925;-71
2022/08/23 08:14:15;;;;;;;2.60;2.33;;;33.70;77.20;;;;;;5045306;28;20529;-71
2022/08/23 08:16:44;;;;;;;5.50;2.60;;;33.40;75.00;;;;;;5046819;28;20445;-71
2022/08/23 08:19:14;;;;;;;4.03;2.40;;;33.60;76.40;;;;;;5044342;28;20491;-72
2022/08/23 08:21:41;;;;;;;14.43;4.10;;;34.00;76.50;;;;;;5042694;28;20483;-73
2022/08/23 08:24:09;;;;;;;3.03;2.73;;;34.50;73.90;;;;;;5045852;28;20502;-71
2022/08/23 08:26:36;;;;;;;2.60;2.30;;;34.60;72.10;;;;;;5044344;28;20450;-71
2022/08/23 08:29:04;;;;;;;10.03;2.90;;;34.40;72.10;;;;;;5043331;28;20492;-71
2022/08/23 08:31:33;;;;;;;5.07;3.10;;;34.20;71.30;;;;;;5038436;28;20443;-72
2022/08/23 08:33:59;;;;;;;3.50;2.60;;;35.00;70.70;;;;;;5043617;28;20555;-71
2022/08/23 08:36:35;;;;;;;2.40;2.20;;;35.00;67.60;;;;;;5045393;28;20978;-71
2022/08/23 08:39:02;;;;;;;11.37;3.20;;;35.90;67.40;;;;;;5044755;28;20459;-72
2022/08/23 08:41:45;;;;;;;6.90;2.70;;;36.20;65.90;;;;;;5048347;28;20488;-71
2022/08/23 08:44:24;;;;;;;3.63;2.40;;;35.90;62.70;;;;;;5044403;28;20471;-71
2022/08/23 08:46:55;;;;;;;3.87;3.00;;;35.80;62.70;;;;;;5044495;28;20555;-71
2022/08/23 08:49:33;;;;;;;5.20;2.70;;;35.70;61.40;;;;;;5041172;28;20458;-71
2022/08/23 08:52:11;;;;;;;4.83;3.00;;;35.50;61.90;;;;;;5044412;28;20444;-72
2022/08/23 08:54:39;;;;;;;2.80;2.37;;;35.70;61.40;;;;;;5042830;28;20489;-72
2022/08/23 08:57:08;;;;;;;2.70;2.20;;;36.60;61.20;;;;;;5044990;28;20479;-71
2022/08/23 08:59:45;;;;;;;6.97;2.57;;;36.80;58.60;;;;;;5046219;28;20458;-71
2022/08/23 09:02:17;;;;;;;5.00;3.10;;;37.10;58.10;;;;;;5041145;28;20484;-71
2022/08/23 09:04:44;;;;;;;6.50;3.00;;;37.30;57.50;;;;;;5042543;28;20487;-72
2022/08/23 09:07:21;;;;;;;4.23;2.63;;;37.30;56.50;;;;;;5046080;28;20458;-71
2022/08/23 09:10:14;;;;;;;3.30;3.00;;;37.30;56.00;;;;;;5044042;28;20443;-71
2022/08/23 09:12:52;;;;;;;7.90;2.60;;;37.30;55.50;;;;;;5041683;28;20442;-71
2022/08/23 09:15:29;;;;;;;2.40;2.20;;;37.20;56.30;;;;;;5045936;28;20510;-71
2022/08/23 09:18:02;;;;;;;3.10;2.70;;;37.10;55.00;;;;;;5040103;28;20461;-71
2022/08/23 09:20:30;;;;;;;3.73;2.93;;;37.20;55.40;;;;;;5043531;28;20487;-71
2022/08/23 09:23:06;;;;;;;4.13;2.93;;;37.60;54.70;;;;;;5038668;28;20567;-71
2022/08/23 09:25:33;;;;;;;2.77;2.50;;;37.60;54.10;;;;;;5042414;28;20840;-71
2022/08/23 09:28:01;;;;;;;3.83;2.77;;;36.70;54.20;;;;;;5044110;28;20521;-71
2022/08/23 09:30:47;;;;;;;4.10;2.50;;;36.00;55.80;;;;;;5043600;28;20459;-71
2022/08/23 09:33:21;;;;;;;2.70;2.30;;;37.10;54.60;;;;;;5042146;28;20834;-71
2022/08/23 09:36:05;;;;;;;13.07;2.30;;;37.50;53.80;;;;;;5042831;28;20818;-71
2022/08/23 09:38:33;;;;;;;5.07;2.90;;;37.00;54.90;;;;;;5041506;28;20443;-71
2022/08/23 09:41:00;;;;;;;3.80;2.67;;;38.40;53.40;;;;;;5043669;28;20451;-71
2022/08/23 09:43:30;;;;;;;3.67;2.33;;;38.70;52.70;;;;;;5045479;28;20435;-72
2022/08/23 09:45:59;;;;;;;2.63;2.43;;;39.50;52.30;;;;;;5041229;28;20448;-71
2022/08/23 09:48:37;;;;;;;5.13;2.67;;;39.60;52.70;;;;;;5043489;28;20460;-71
2022/08/23 09:51:13;;;;;;;5.27;4.10;;;39.70;51.00;;;;;;5043893;28;20470;-71
2022/08/23 09:53:41;;;;;;;2.50;2.30;;;40.10;50.30;;;;;;5045877;28;20471;-71
2022/08/23 09:56:15;;;;;;;4.77;2.90;;;40.00;49.60;;;;;;5044409;28;20447;-71
2022/08/23 09:58:45;;;;;;;3.00;2.50;;;39.20;49.30;;;;;;5040954;28;20467;-71
2022/08/23 10:01:21;;;;;;;2.83;2.40;;;39.30;50.80;;;;;;5040668;28;20442;-71
2022/08/23 10:06:51;;;;;;;2.53;2.33;;;40.10;49.20;;;;;;5050812;28;20477;-74
2022/08/23 10:09:31;;;;;;;3.57;2.80;;;40.60;47.80;;;;;;5057886;28;20898;-74
2022/08/23 10:12:03;;;;;;;4.27;2.83;;;40.70;48.00;;;;;;5055263;28;20439;-74
2022/08/23 10:14:32;;;;;;;3.80;2.47;;;41.10;46.80;;;;;;5056590;28;20530;-74
2022/08/23 10:17:14;;;;;;;2.20;2.00;;;40.70;46.10;;;;;;5035470;28;20836;-74
2022/08/23 10:19:55;;;;;;;5.63;3.00;;;40.20;46.90;;;;;;5032903;28;20451;-74
2022/08/23 10:22:26;;;;;;;4.20;3.30;;;40.40;47.10;;;;;;5035754;28;20642;-74
2022/08/23 10:25:07;;;;;;;3.00;2.70;;;40.80;46.70;;;;;;5037797;28;20479;-75
2022/08/23 10:30:49;;;;;;;4.97;2.80;;;42.00;45.10;;;;;;5035057;28;20574;-74
2022/08/23 10:33:24;;;;;;;4.47;2.80;;;41.60;45.70;;;;;;5034401;28;20514;-74
2022/08/23 10:36:12;;;;;;;7.90;3.30;;;41.70;45.80;;;;;;5038018;28;22413;-74
2022/08/23 10:38:46;;;;;;;4.43;3.07;;;42.00;45.30;;;;;;5042638;28;20460;-74
2022/08/23 10:41:54;;;;;;;2.53;2.20;;;41.90;44.80;;;;;;5040882;28;20459;-74
2022/08/23 10:44:31;;;;;;;2.97;2.67;;;42.30;45.00;;;;;;4979484;28;21103;-75
2022/08/23 10:47:15;;;;;;;3.63;2.30;;;42.30;44.30;;;;;;5034751;28;20452;-74
2022/08/23 10:49:44;;;;;;;4.40;2.70;;;42.20;44.60;;;;;;5036060;28;20518;-74
2022/08/23 10:52:24;;;;;;;3.20;2.70;;;41.90;44.20;;;;;;5039790;28;20462;-74
2022/08/23 10:55:05;;;;;;;4.40;4.00;;;41.00;45.80;;;;;;5040870;28;20843;-75
2022/08/23 10:57:42;;;;;;;5.70;2.87;;;41.40;45.30;;;;;;5042452;28;20475;-74
2022/08/23 11:00:14;;;;;;;3.07;2.80;;;41.30;44.20;;;;;;5040396;28;20486;-74
2022/08/23 11:02:50;;;;;;;12.10;3.07;;;40.90;44.40;;;;;;5038864;28;20484;-74
2022/08/23 11:05:23;;;;;;;6.70;2.90;;;41.20;44.50;;;;;;5046572;28;20481;-75
2022/08/23 11:08:12;;;;;;;4.90;2.90;;;41.60;43.70;;;;;;5056528;28;20546;-75
2022/08/23 11:10:51;;;;;;;2.70;2.50;;;41.00;44.40;;;;;;5061866;28;20820;-74
2022/08/23 11:13:23;;;;;;;5.43;2.60;;;41.20;43.60;;;;;;5058184;28;20533;-74
2022/08/23 11:15:59;;;;;;;5.73;2.73;;;40.90;44.70;;;;;;5060399;28;20477;-75
2022/08/23 11:18:52;;;;;;;4.13;2.73;;;40.70;43.70;;;;;;5054619;28;20546;-75
2022/08/23 11:21:46;;;;;;;2.63;2.30;;;41.50;43.60;;;;;;5061347;28;20457;-74
2022/08/23 11:24:55;;;;;;;4.10;3.00;;;41.80;44.20;;;;;;5052202;28;20498;-75
2022/08/23 11:27:44;;;;;;;4.33;3.20;;;42.80;43.40;;;;;;5057387;28;20451;-75
2022/08/23 11:30:56;;;;;;;5.20;4.33;;;43.40;42.90;;;;;;5063441;28;20447;-75
2022/08/23 11:33:28;;;;;;;8.33;2.90;;;44.10;40.90;;;;;;5044283;28;20554;-75
2022/08/23 11:36:17;;;;;;;11.90;2.87;;;43.50;41.70;;;;;;5060701;28;20469;-75
2022/08/23 11:39:07;;;;;;;3.23;2.70;;;43.50;40.60;;;;;;5057913;28;20488;-75
2022/08/23 11:41:56;;;;;;;4.20;2.73;;;43.90;41.40;;;;;;5058938;28;20478;-75
2022/08/23 11:44:35;;;;;;;3.53;3.23;;;43.70;40.80;;;;;;5051000;28;20538;-75
2022/08/23 11:47:09;;;;;;;5.27;3.23;;;43.80;41.10;;;;;;5060094;28;20516;-74
2022/08/23 11:49:59;;;;;;;3.60;3.10;;;44.40;40.70;;;;;;5058269;28;21021;-75
2022/08/23 11:52:58;;;;;;;3.80;2.83;;;44.50;39.70;;;;;;5051727;28;20968;-75
2022/08/23 11:55:42;;;;;;;12.60;3.30;;;44.30;39.30;;;;;;5057512;28;20471;-75
2022/08/23 11:58:34;;;;;;;3.13;2.80;;;44.00;39.60;;;;;;5059232;28;20486;-75
2022/08/23 12:01:10;;;;;;;4.20;3.07;;;42.50;41.10;;;;;;5057126;28;21026;-74
2022/08/23 12:03:55;;;;;;;3.70;2.47;;;42.90;40.70;;;;;;5056725;28;20479;-74
2022/08/23 12:07:00;;;;;;;3.30;2.50;;;43.30;39.90;;;;;;5061245;28;20482;-74
2022/08/23 12:09:56;;;;;;;3.80;2.57;;;43.50;38.80;;;;;;5055732;28;20456;-74
2022/08/23 12:12:30;;;;;;;5.17;3.13;;;43.20;40.30;;;;;;5053850;28;20510;-74
2022/08/23 12:15:17;;;;;;;4.00;3.07;;;42.80;38.80;;;;;;5052378;28;21022;-75
2022/08/23 12:18:11;;;;;;;5.90;2.43;;;42.30;39.30;;;;;;5061027;28;20451;-74
2022/08/23 12:20:39;;;;;;;5.30;4.07;;;43.10;38.70;;;;;;5055883;28;20578;-75
2022/08/23 12:23:19;;;;;;;3.77;2.40;;;43.90;38.60;;;;;;5056913;28;20487;-75
2022/08/23 12:26:00;;;;;;;3.87;2.63;;;44.10;38.60;;;;;;5057270;28;20479;-74
2022/08/23 12:28:46;;;;;;;5.10;3.53;;;43.10;38.70;;;;;;5053450;28;20496;-75
2022/08/23 12:31:22;;;;;;;4.60;2.63;;;43.10;39.10;;;;;;5054988;28;20455;-74
2022/08/23 12:34:03;;;;;;;2.30;2.07;;;43.40;38.80;;;;;;5058690;28;20472;-74
2022/08/23 12:36:43;;;;;;;3.40;3.07;;;43.30;37.60;;;;;;5056250;28;20483;-75
2022/08/23 12:39:24;;;;;;;2.63;2.43;;;43.40;39.10;;;;;;5054496;28;20830;-74
2022/08/23 12:41:57;;;;;;;2.90;1.97;;;43.10;38.80;;;;;;5059393;28;20443;-74
2022/08/23 12:44:35;;;;;;;3.43;2.80;;;43.40;39.10;;;;;;5058204;28;20467;-74
2022/08/23 12:47:17;;;;;;;5.30;2.43;;;43.30;38.40;;;;;;5053869;28;20485;-74
2022/08/23 12:50:04;;;;;;;6.37;3.20;;;43.00;38.00;;;;;;5055705;28;20511;-74
2022/08/23 12:52:41;;;;;;;4.90;2.97;;;42.70;38.30;;;;;;5057983;28;20451;-74
2022/08/23 12:55:20;;;;;;;7.40;3.60;;;42.40;39.00;;;;;;5061878;28;20994;-74
2022/08/23 12:57:54;;;;;;;4.13;3.20;;;42.60;39.60;;;;;;5058672;28;20455;-75
2022/08/23 13:00:32;;;;;;;5.13;2.73;;;42.70;39.30;;;;;;5057372;28;20956;-75
2022/08/23 13:03:11;;;;;;;3.73;2.90;;;42.30;38.70;;;;;;5053360;28;20485;-79
2022/08/23 13:05:47;;;;;;;5.93;2.73;;;42.20;38.60;;;;;;5062956;28;21052;-75
2022/08/23 13:08:18;;;;;;;3.93;2.70;;;42.00;39.00;;;;;;5055878;28;20542;-74
2022/08/23 13:10:50;;;;;;;5.13;3.37;;;41.50;39.90;;;;;;5053280;28;20447;-74
2022/08/23 13:13:26;;;;;;;2.97;2.67;;;42.00;40.30;;;;;;5050024;28;20914;-74
2022/08/23 13:15:59;;;;;;;3.37;3.07;;;42.70;38.50;;;;;;5058412;28;20496;-74
2022/08/23 13:18:32;;;;;;;3.63;2.30;;;42.30;38.20;;;;;;5058851;28;20520;-75
2022/08/23 13:21:19;;;;;;;4.63;2.97;;;42.00;38.80;;;;;;5059349;28;20471;-73